createdAt,value
2019-02-23T00:00:53.908Z,75.99
2019-02-23T00:15:51.073Z,73.62
2019-02-23T00:30:50.665Z,70.89
2019-02-23T00:45:50.648Z,70.52
2019-02-23T01:00:51.070Z,69.74
2019-02-23T01:15:50.931Z,69.42
2019-02-23T01:30:50.833Z,66.48
2019-02-23T01:45:52.545Z,67.22
2019-02-23T02:00:53.298Z,68.92
2019-02-23T02:15:55.656Z,68.79
2019-02-23T02:45:51.025Z,69.17
2019-02-23T03:00:51.427Z,70.07
2019-02-23T03:15:51.320Z,71.30
2019-02-23T03:30:50.230Z,71.16
2019-02-23T03:45:51.279Z,69.66
2019-02-23T04:00:53.807Z,69.00
2019-02-23T04:15:51.509Z,68.97
2019-02-23T04:30:51.483Z,72.89
2019-02-23T04:45:51.398Z,77.73
2019-02-23T05:00:51.768Z,78.79
2019-02-23T05:15:51.644Z,79.61
2019-02-23T05:30:51.530Z,78.12
2019-02-23T05:45:51.417Z,76.83
2019-02-23T06:00:51.265Z,72.18
2019-02-23T06:15:52.346Z,69.99
2019-02-23T06:30:51.212Z,69.21
2019-02-23T06:45:51.125Z,67.31
2019-02-23T07:00:51.164Z,66.56
2019-02-23T07:15:53.420Z,65.91
2019-02-23T07:30:52.927Z,66.77
2019-02-23T07:45:53.413Z,64.19
2019-02-23T08:00:51.307Z,62.83
2019-02-23T08:15:51.672Z,61.02
2019-02-23T08:30:51.608Z,57.74
2019-02-23T08:45:53.530Z,58.61
2019-02-23T09:00:51.475Z,58.65
2019-02-23T09:15:50.878Z,53.82
2019-02-23T09:30:50.785Z,54.04
2019-02-23T09:45:50.646Z,52.86
2019-02-23T10:00:51.825Z,51.13
2019-02-23T10:15:51.032Z,54.84
2019-02-23T10:30:50.956Z,55.57
2019-02-23T10:45:50.863Z,52.13
2019-02-23T11:00:50.913Z,52.71
2019-02-23T11:15:50.876Z,52.57
2019-02-23T11:30:50.799Z,52.60
2019-02-23T11:45:51.773Z,50.31
2019-02-23T12:00:50.644Z,52.16
2019-02-23T12:15:51.587Z,51.19
2019-02-23T12:30:51.500Z,52.68
2019-02-23T12:45:51.487Z,51.60
2019-02-23T13:00:51.384Z,53.14
2019-02-23T13:45:58.437Z,55.68
2019-02-23T16:00:51.144Z,56.08
2019-02-23T16:15:51.436Z,57.15
2019-02-23T16:30:53.349Z,57.96
2019-02-23T16:45:51.578Z,57.74
2019-02-23T17:00:51.200Z,58.74
2019-02-23T17:15:51.508Z,59.29
2019-02-23T17:30:51.481Z,60.20
2019-02-23T17:45:51.472Z,59.10
2019-02-23T18:00:51.376Z,58.00
2019-02-23T18:15:52.004Z,59.27
2019-02-23T18:30:50.784Z,59.24
2019-02-23T18:45:51.755Z,58.67
2019-02-23T19:00:57.644Z,59.19
2019-02-23T19:15:50.980Z,59.37
2019-02-23T19:30:51.161Z,59.94
2019-02-23T19:45:50.967Z,60.67
2019-02-23T20:00:50.827Z,60.79
2019-02-23T20:15:51.239Z,60.54
2019-02-23T20:30:56.661Z,60.31
2019-02-23T20:45:51.056Z,60.44
2019-02-23T21:00:51.189Z,60.21
2019-02-23T21:15:51.479Z,60.56
2019-02-23T21:30:51.451Z,61.19
2019-02-23T21:45:51.356Z,61.98
2019-02-23T22:00:52.212Z,61.41
2019-02-23T22:15:53.622Z,62.18
2019-02-23T22:30:52.400Z,62.70
2019-02-23T22:45:51.419Z,61.54
2019-02-23T23:00:54.477Z,60.97
2019-02-23T23:15:50.811Z,61.55
2019-02-23T23:30:50.717Z,61.40
2019-02-23T23:45:51.635Z,61.87
